sensor_id;sensor_type;location;lat;lon;timestamp;temperature;humidity
79010;DHT22;73031;44.726;37.760;2024-03-06T00:00:14;8.72;73.98
79010;DHT22;73031;44.726;37.760;2024-03-06T00:01:15;8.72;74.14
79010;DHT22;73031;44.726;37.760;2024-03-06T00:02:16;8.69;74.06
79010;DHT22;73031;44.726;37.760;2024-03-06T00:03:17;8.69;74.20
79010;DHT22;73031;44.726;37.760;2024-03-06T00:04:18;8.72;74.33
79010;DHT22;73031;44.726;37.760;2024-03-06T00:05:19;8.73;74.03
79010;DHT22;73031;44.726;37.760;2024-03-06T00:06:20;8.71;73.87
79010;DHT22;73031;44.726;37.760;2024-03-06T00:07:21;8.69;73.90
79010;DHT22;73031;44.726;37.760;2024-03-06T00:08:22;8.68;74.01
79010;DHT22;73031;44.726;37.760;2024-03-06T00:09:24;8.67;74.16
79010;DHT22;73031;44.726;37.760;2024-03-06T00:10:38;8.68;74.14
79010;DHT22;73031;44.726;37.760;2024-03-06T00:11:52;8.67;74.21
79010;DHT22;73031;44.726;37.760;2024-03-06T00:12:53;8.62;74.07
79010;DHT22;73031;44.726;37.760;2024-03-06T00:13:54;8.61;74.15
79010;DHT22;73031;44.726;37.760;2024-03-06T00:14:56;8.62;73.98
79010;DHT22;73031;44.726;37.760;2024-03-06T00:15:57;8.59;74.01
79010;DHT22;73031;44.726;37.760;2024-03-06T00:16:58;8.58;74.11
79010;DHT22;73031;44.726;37.760;2024-03-06T00:17:59;8.58;74.12
79010;DHT22;73031;44.726;37.760;2024-03-06T00:19:00;8.58;74.18
79010;DHT22;73031;44.726;37.760;2024-03-06T00:20:02;8.55;74.15
79010;DHT22;73031;44.726;37.760;2024-03-06T00:21:06;8.55;74.44
79010;DHT22;73031;44.726;37.760;2024-03-06T00:22:07;8.55;74.26
79010;DHT22;73031;44.726;37.760;2024-03-06T00:23:08;8.55;74.20
79010;DHT22;73031;44.726;37.760;2024-03-06T00:24:12;8.54;74.20
79010;DHT22;73031;44.726;37.760;2024-03-06T00:25:13;8.51;74.09
79010;DHT22;73031;44.726;37.760;2024-03-06T00:26:15;8.47;74.19
79010;DHT22;73031;44.726;37.760;2024-03-06T00:27:16;8.45;74.21
79010;DHT22;73031;44.726;37.760;2024-03-06T00:28:17;8.47;74.35
79010;DHT22;73031;44.726;37.760;2024-03-06T00:29:18;8.44;74.53
79010;DHT22;73031;44.726;37.760;2024-03-06T00:30:19;8.45;74.47
79010;DHT22;73031;44.726;37.760;2024-03-06T00:31:20;8.44;74.52
79010;DHT22;73031;44.726;37.760;2024-03-06T00:32:25;8.41;74.80
79010;DHT22;73031;44.726;37.760;2024-03-06T00:33:26;8.44;74.73
79010;DHT22;73031;44.726;37.760;2024-03-06T00:34:27;8.42;74.71
79010;DHT22;73031;44.726;37.760;2024-03-06T00:35:28;8.40;74.54
79010;DHT22;73031;44.726;37.760;2024-03-06T00:36:29;8.37;74.92
79010;DHT22;73031;44.726;37.760;2024-03-06T00:37:30;8.37;74.97
79010;DHT22;73031;44.726;37.760;2024-03-06T00:38:31;8.37;74.74
79010;DHT22;73031;44.726;37.760;2024-03-06T00:39:32;8.37;74.84
79010;DHT22;73031;44.726;37.760;2024-03-06T00:40:34;8.37;75.15
79010;DHT22;73031;44.726;37.760;2024-03-06T00:41:35;8.36;74.93
79010;DHT22;73031;44.726;37.760;2024-03-06T00:42:38;8.38;74.97
79010;DHT22;73031;44.726;37.760;2024-03-06T00:43:41;8.38;74.92
79010;DHT22;73031;44.726;37.760;2024-03-06T00:44:43;8.38;74.70
79010;DHT22;73031;44.726;37.760;2024-03-06T00:45:44;8.36;74.96
79010;DHT22;73031;44.726;37.760;2024-03-06T00:46:45;8.37;75.00
79010;DHT22;73031;44.726;37.760;2024-03-06T00:47:46;8.38;75.00
79010;DHT22;73031;44.726;37.760;2024-03-06T00:48:47;8.38;74.86
79010;DHT22;73031;44.726;37.760;2024-03-06T00:49:48;8.36;74.96
79010;DHT22;73031;44.726;37.760;2024-03-06T00:50:49;8.34;74.97
79010;DHT22;73031;44.726;37.760;2024-03-06T00:51:50;8.33;74.93
79010;DHT22;73031;44.726;37.760;2024-03-06T00:52:51;8.33;75.07
79010;DHT22;73031;44.726;37.760;2024-03-06T00:53:52;8.29;75.07
79010;DHT22;73031;44.726;37.760;2024-03-06T00:54:54;8.29;75.01
79010;DHT22;73031;44.726;37.760;2024-03-06T00:55:55;8.30;75.00
79010;DHT22;73031;44.726;37.760;2024-03-06T00:56:56;8.29;75.17
79010;DHT22;73031;44.726;37.760;2024-03-06T00:57:58;8.29;75.21
79010;DHT22;73031;44.726;37.760;2024-03-06T00:58:59;8.29;75.37
79010;DHT22;73031;44.726;37.760;2024-03-06T01:00:00;8.30;75.32
79010;DHT22;73031;44.726;37.760;2024-03-06T01:01:01;8.29;75.40
79010;DHT22;73031;44.726;37.760;2024-03-06T01:02:02;8.29;75.14
79010;DHT22;73031;44.726;37.760;2024-03-06T01:03:03;8.30;75.26
79010;DHT22;73031;44.726;37.760;2024-03-06T01:04:04;8.30;75.10
79010;DHT22;73031;44.726;37.760;2024-03-06T01:05:06;8.29;75.02
79010;DHT22;73031;44.726;37.760;2024-03-06T01:06:10;8.26;75.03
79010;DHT22;73031;44.726;37.760;2024-03-06T01:07:11;8.23;75.33
79010;DHT22;73031;44.726;37.760;2024-03-06T01:08:12;8.24;75.13
79010;DHT22;73031;44.726;37.760;2024-03-06T01:09:13;8.22;75.11
79010;DHT22;73031;44.726;37.760;2024-03-06T01:10:14;8.20;75.14
79010;DHT22;73031;44.726;37.760;2024-03-06T01:11:15;8.22;75.33
79010;DHT22;73031;44.726;37.760;2024-03-06T01:12:16;8.22;75.45
79010;DHT22;73031;44.726;37.760;2024-03-06T01:13:22;8.23;75.31
79010;DHT22;73031;44.726;37.760;2024-03-06T01:14:23;8.23;75.29
79010;DHT22;73031;44.726;37.760;2024-03-06T01:15:24;8.23;75.40
79010;DHT22;73031;44.726;37.760;2024-03-06T01:16:25;8.20;75.18
79010;DHT22;73031;44.726;37.760;2024-03-06T01:17:26;8.23;75.41
79010;DHT22;73031;44.726;37.760;2024-03-06T01:18:27;8.20;75.36
79010;DHT22;73031;44.726;37.760;2024-03-06T01:19:29;8.23;75.39
79010;DHT22;73031;44.726;37.760;2024-03-06T01:20:30;8.22;75.57
79010;DHT22;73031;44.726;37.760;2024-03-06T01:21:31;8.23;75.57
79010;DHT22;73031;44.726;37.760;2024-03-06T01:22:34;8.20;75.36
79010;DHT22;73031;44.726;37.760;2024-03-06T01:23:35;8.22;75.43
79010;DHT22;73031;44.726;37.760;2024-03-06T01:24:36;8.20;75.41
79010;DHT22;73031;44.726;37.760;2024-03-06T01:25:37;8.17;75.36
79010;DHT22;73031;44.726;37.760;2024-03-06T01:26:38;8.19;75.30
79010;DHT22;73031;44.726;37.760;2024-03-06T01:27:41;8.19;75.57
79010;DHT22;73031;44.726;37.760;2024-03-06T01:28:42;8.23;75.34
79010;DHT22;73031;44.726;37.760;2024-03-06T01:29:43;8.22;75.35
79010;DHT22;73031;44.726;37.760;2024-03-06T01:30:44;8.22;75.27
79010;DHT22;73031;44.726;37.760;2024-03-06T01:31:45;8.19;75.28
79010;DHT22;73031;44.726;37.760;2024-03-06T01:32:47;8.17;75.28
79010;DHT22;73031;44.726;37.760;2024-03-06T01:33:48;8.13;75.16
79010;DHT22;73031;44.726;37.760;2024-03-06T01:34:49;8.14;75.33
79010;DHT22;73031;44.726;37.760;2024-03-06T01:35:50;8.16;75.47
79010;DHT22;73031;44.726;37.760;2024-03-06T01:36:52;8.13;75.31
79010;DHT22;73031;44.726;37.760;2024-03-06T01:37:53;8.16;75.32
79010;DHT22;73031;44.726;37.760;2024-03-06T01:38:54;8.13;75.31
79010;DHT22;73031;44.726;37.760;2024-03-06T01:39:55;8.13;75.42
79010;DHT22;73031;44.726;37.760;2024-03-06T01:40:56;8.10;75.60
79010;DHT22;73031;44.726;37.760;2024-03-06T01:41:57;8.14;75.63
79010;DHT22;73031;44.726;37.760;2024-03-06T01:42:58;8.16;75.70
79010;DHT22;73031;44.726;37.760;2024-03-06T01:44:02;8.14;75.49
79010;DHT22;73031;44.726;37.760;2024-03-06T01:45:04;8.14;75.47
79010;DHT22;73031;44.726;37.760;2024-03-06T01:46:06;8.14;75.45
79010;DHT22;73031;44.726;37.760;2024-03-06T01:47:07;8.12;75.55
79010;DHT22;73031;44.726;37.760;2024-03-06T01:48:08;8.10;75.46
79010;DHT22;73031;44.726;37.760;2024-03-06T01:49:09;8.10;75.60
79010;DHT22;73031;44.726;37.760;2024-03-06T01:50:11;8.13;75.34
79010;DHT22;73031;44.726;37.760;2024-03-06T01:51:13;8.12;75.48
79010;DHT22;73031;44.726;37.760;2024-03-06T01:52:16;8.12;75.56
79010;DHT22;73031;44.726;37.760;2024-03-06T01:53:18;8.14;75.56
79010;DHT22;73031;44.726;37.760;2024-03-06T01:54:19;8.12;75.61
79010;DHT22;73031;44.726;37.760;2024-03-06T01:55:21;8.09;75.38
79010;DHT22;73031;44.726;37.760;2024-03-06T01:56:22;8.09;75.48
79010;DHT22;73031;44.726;37.760;2024-03-06T01:57:23;8.05;75.76
79010;DHT22;73031;44.726;37.760;2024-03-06T01:58:25;8.07;75.69
79010;DHT22;73031;44.726;37.760;2024-03-06T01:59:26;8.06;75.73
79010;DHT22;73031;44.726;37.760;2024-03-06T02:00:28;8.07;75.64
79010;DHT22;73031;44.726;37.760;2024-03-06T02:01:31;8.07;75.70
79010;DHT22;73031;44.726;37.760;2024-03-06T02:02:33;8.10;75.54
79010;DHT22;73031;44.726;37.760;2024-03-06T02:03:35;8.07;75.51
79010;DHT22;73031;44.726;37.760;2024-03-06T02:04:36;8.06;75.49
79010;DHT22;73031;44.726;37.760;2024-03-06T02:05:37;8.05;75.47
79010;DHT22;73031;44.726;37.760;2024-03-06T02:06:41;8.06;75.45
79010;DHT22;73031;44.726;37.760;2024-03-06T02:07:43;8.03;75.48
79010;DHT22;73031;44.726;37.760;2024-03-06T02:08:46;8.03;75.67
79010;DHT22;73031;44.726;37.760;2024-03-06T02:09:47;8.05;75.45
79010;DHT22;73031;44.726;37.760;2024-03-06T02:10:49;8.00;75.53
79010;DHT22;73031;44.726;37.760;2024-03-06T02:11:50;7.97;75.66
79010;DHT22;73031;44.726;37.760;2024-03-06T02:12:52;7.97;75.64
79010;DHT22;73031;44.726;37.760;2024-03-06T02:13:54;7.95;75.66
79010;DHT22;73031;44.726;37.760;2024-03-06T02:14:55;7.95;75.75
79010;DHT22;73031;44.726;37.760;2024-03-06T02:15:56;7.96;75.73
79010;DHT22;73031;44.726;37.760;2024-03-06T02:16:57;7.97;75.95
79010;DHT22;73031;44.726;37.760;2024-03-06T02:17:58;7.99;76.07
79010;DHT22;73031;44.726;37.760;2024-03-06T02:19:08;8.03;75.82
79010;DHT22;73031;44.726;37.760;2024-03-06T02:20:10;7.99;75.82
79010;DHT22;73031;44.726;37.760;2024-03-06T02:21:14;7.99;75.84
79010;DHT22;73031;44.726;37.760;2024-03-06T02:22:16;7.97;75.84
79010;DHT22;73031;44.726;37.760;2024-03-06T02:23:17;7.96;75.87
79010;DHT22;73031;44.726;37.760;2024-03-06T02:24:22;7.93;75.76
79010;DHT22;73031;44.726;37.760;2024-03-06T02:25:24;7.93;75.95
79010;DHT22;73031;44.726;37.760;2024-03-06T02:26:25;7.93;76.02
79010;DHT22;73031;44.726;37.760;2024-03-06T02:27:26;7.95;75.88
79010;DHT22;73031;44.726;37.760;2024-03-06T02:28:27;7.96;75.80
79010;DHT22;73031;44.726;37.760;2024-03-06T02:29:28;7.95;75.63
79010;DHT22;73031;44.726;37.760;2024-03-06T02:30:29;7.93;75.66
79010;DHT22;73031;44.726;37.760;2024-03-06T02:31:36;7.93;75.78
79010;DHT22;73031;44.726;37.760;2024-03-06T02:32:37;7.92;75.79
79010;DHT22;73031;44.726;37.760;2024-03-06T02:33:39;7.92;75.70
79010;DHT22;73031;44.726;37.760;2024-03-06T02:34:40;7.92;75.50
79010;DHT22;73031;44.726;37.760;2024-03-06T02:35:41;7.89;75.74
79010;DHT22;73031;44.726;37.760;2024-03-06T02:36:45;7.90;75.75
79010;DHT22;73031;44.726;37.760;2024-03-06T02:37:46;7.87;75.65
79010;DHT22;73031;44.726;37.760;2024-03-06T02:38:47;7.86;75.65
79010;DHT22;73031;44.726;37.760;2024-03-06T02:39:49;7.86;75.75
79010;DHT22;73031;44.726;37.760;2024-03-06T02:40:50;7.85;75.68
79010;DHT22;73031;44.726;37.760;2024-03-06T02:41:51;7.79;75.75
79010;DHT22;73031;44.726;37.760;2024-03-06T02:42:52;7.81;75.81
79010;DHT22;73031;44.726;37.760;2024-03-06T02:43:53;7.82;75.80
79010;DHT22;73031;44.726;37.760;2024-03-06T02:44:55;7.82;75.83
79010;DHT22;73031;44.726;37.760;2024-03-06T02:45:56;7.78;75.87
79010;DHT22;73031;44.726;37.760;2024-03-06T02:46:57;7.72;76.11
79010;DHT22;73031;44.726;37.760;2024-03-06T02:47:58;7.72;76.22
79010;DHT22;73031;44.726;37.760;2024-03-06T02:48:59;7.76;76.12
79010;DHT22;73031;44.726;37.760;2024-03-06T02:50:00;7.75;76.13
79010;DHT22;73031;44.726;37.760;2024-03-06T02:51:02;7.75;76.13
79010;DHT22;73031;44.726;37.760;2024-03-06T02:52:03;7.75;76.02
79010;DHT22;73031;44.726;37.760;2024-03-06T02:53:04;7.74;76.09
79010;DHT22;73031;44.726;37.760;2024-03-06T02:54:05;7.76;76.18
79010;DHT22;73031;44.726;37.760;2024-03-06T02:55:06;7.75;76.20
79010;DHT22;73031;44.726;37.760;2024-03-06T02:56:07;7.72;76.20
79010;DHT22;73031;44.726;37.760;2024-03-06T02:57:09;7.68;76.17
79010;DHT22;73031;44.726;37.760;2024-03-06T02:58:10;7.71;76.11
79010;DHT22;73031;44.726;37.760;2024-03-06T02:59:11;7.68;76.17
79010;DHT22;73031;44.726;37.760;2024-03-06T03:00:12;7.68;76.32
79010;DHT22;73031;44.726;37.760;2024-03-06T03:01:14;7.65;76.51
79010;DHT22;73031;44.726;37.760;2024-03-06T03:02:15;7.64;76.28
79010;DHT22;73031;44.726;37.760;2024-03-06T03:03:16;7.65;76.67
79010;DHT22;73031;44.726;37.760;2024-03-06T03:04:18;7.67;76.54
79010;DHT22;73031;44.726;37.760;2024-03-06T03:05:19;7.65;76.39
79010;DHT22;73031;44.726;37.760;2024-03-06T03:06:20;7.65;76.52
79010;DHT22;73031;44.726;37.760;2024-03-06T03:07:21;7.69;76.82
79010;DHT22;73031;44.726;37.760;2024-03-06T03:08:24;7.74;76.93
79010;DHT22;73031;44.726;37.760;2024-03-06T03:09:25;7.75;76.80
79010;DHT22;73031;44.726;37.760;2024-03-06T03:10:26;7.74;76.74
79010;DHT22;73031;44.726;37.760;2024-03-06T03:11:27;7.72;76.59
79010;DHT22;73031;44.726;37.760;2024-03-06T03:12:28;7.71;76.68
79010;DHT22;73031;44.726;37.760;2024-03-06T03:13:30;7.71;76.93
79010;DHT22;73031;44.726;37.760;2024-03-06T03:14:31;7.72;76.81
79010;DHT22;73031;44.726;37.760;2024-03-06T03:15:33;7.78;76.81
79010;DHT22;73031;44.726;37.760;2024-03-06T03:16:34;7.74;76.69
79010;DHT22;73031;44.726;37.760;2024-03-06T03:17:36;7.74;76.63
79010;DHT22;73031;44.726;37.760;2024-03-06T03:18:37;7.76;76.71
79010;DHT22;73031;44.726;37.760;2024-03-06T03:19:38;7.78;76.80
79010;DHT22;73031;44.726;37.760;2024-03-06T03:20:40;7.78;76.57
79010;DHT22;73031;44.726;37.760;2024-03-06T03:21:44;7.79;76.62
79010;DHT22;73031;44.726;37.760;2024-03-06T03:22:45;7.79;76.69
79010;DHT22;73031;44.726;37.760;2024-03-06T03:23:46;7.82;76.60
79010;DHT22;73031;44.726;37.760;2024-03-06T03:24:47;7.81;76.67
79010;DHT22;73031;44.726;37.760;2024-03-06T03:25:48;7.78;76.56
79010;DHT22;73031;44.726;37.760;2024-03-06T03:26:50;7.79;76.50
79010;DHT22;73031;44.726;37.760;2024-03-06T03:27:51;7.83;76.40
79010;DHT22;73031;44.726;37.760;2024-03-06T03:28:52;7.85;76.28
79010;DHT22;73031;44.726;37.760;2024-03-06T03:29:53;7.82;75.94
79010;DHT22;73031;44.726;37.760;2024-03-06T03:30:54;7.83;75.96
79010;DHT22;73031;44.726;37.760;2024-03-06T03:31:55;7.81;75.96
79010;DHT22;73031;44.726;37.760;2024-03-06T03:32:56;7.79;76.13
79010;DHT22;73031;44.726;37.760;2024-03-06T03:33:57;7.79;76.08
79010;DHT22;73031;44.726;37.760;2024-03-06T03:34:59;7.82;76.13
79010;DHT22;73031;44.726;37.760;2024-03-06T03:36:00;7.81;76.31
79010;DHT22;73031;44.726;37.760;2024-03-06T03:37:01;7.81;76.27
79010;DHT22;73031;44.726;37.760;2024-03-06T03:38:03;7.83;76.37
79010;DHT22;73031;44.726;37.760;2024-03-06T03:39:04;7.85;76.37
79010;DHT22;73031;44.726;37.760;2024-03-06T03:40:06;7.85;76.60
79010;DHT22;73031;44.726;37.760;2024-03-06T03:41:09;7.90;77.02
79010;DHT22;73031;44.726;37.760;2024-03-06T03:42:10;7.89;76.58
79010;DHT22;73031;44.726;37.760;2024-03-06T03:43:11;7.95;76.62
79010;DHT22;73031;44.726;37.760;2024-03-06T03:44:16;7.93;76.23
79010;DHT22;73031;44.726;37.760;2024-03-06T03:45:18;7.93;76.31
79010;DHT22;73031;44.726;37.760;2024-03-06T03:46:20;7.90;76.01
79010;DHT22;73031;44.726;37.760;2024-03-06T05:24:38;19.38;53.09
79010;DHT22;73031;44.726;37.760;2024-03-06T05:25:40;19.43;51.40
79010;DHT22;73031;44.726;37.760;2024-03-06T05:26:42;19.44;48.95
79010;DHT22;73031;44.726;37.760;2024-03-06T05:27:43;19.47;49.15
79010;DHT22;73031;44.726;37.760;2024-03-06T05:28:45;19.60;48.71
79010;DHT22;73031;44.726;37.760;2024-03-06T05:29:46;19.78;46.37
79010;DHT22;73031;44.726;37.760;2024-03-06T05:30:47;19.99;44.51
79010;DHT22;73031;44.726;37.760;2024-03-06T05:31:49;20.19;44.46
79010;DHT22;73031;44.726;37.760;2024-03-06T05:32:50;20.34;43.56
79010;DHT22;73031;44.726;37.760;2024-03-06T05:33:51;20.45;44.17
79010;DHT22;73031;44.726;37.760;2024-03-06T05:34:53;20.64;43.65
79010;DHT22;73031;44.726;37.760;2024-03-06T05:35:55;20.71;43.49
79010;DHT22;73031;44.726;37.760;2024-03-06T05:36:56;20.78;42.82
79010;DHT22;73031;44.726;37.760;2024-03-06T05:37:58;21.00;42.89
79010;DHT22;73031;44.726;37.760;2024-03-06T05:38:59;21.22;41.90
79010;DHT22;73031;44.726;37.760;2024-03-06T05:40:02;21.40;42.21
79010;DHT22;73031;44.726;37.760;2024-03-06T05:41:05;21.50;41.47
79010;DHT22;73031;44.726;37.760;2024-03-06T05:42:07;21.57;41.08
79010;DHT22;73031;44.726;37.760;2024-03-06T05:43:08;21.69;40.21
79010;DHT22;73031;44.726;37.760;2024-03-06T05:44:10;21.85;40.34
79010;DHT22;73031;44.726;37.760;2024-03-06T05:45:11;21.94;40.49
79010;DHT22;73031;44.726;37.760;2024-03-06T05:46:13;22.06;38.97
79010;DHT22;73031;44.726;37.760;2024-03-06T05:47:14;22.01;39.33
79010;DHT22;73031;44.726;37.760;2024-03-06T05:48:15;22.01;39.03
79010;DHT22;73031;44.726;37.760;2024-03-06T05:49:17;22.09;38.78
79010;DHT22;73031;44.726;37.760;2024-03-06T05:50:19;22.10;38.86
79010;DHT22;73031;44.726;37.760;2024-03-06T05:51:20;22.14;38.03
79010;DHT22;73031;44.726;37.760;2024-03-06T05:52:21;22.22;38.32
79010;DHT22;73031;44.726;37.760;2024-03-06T05:53:23;22.23;37.74
79010;DHT22;73031;44.726;37.760;2024-03-06T05:54:24;22.16;37.60
79010;DHT22;73031;44.726;37.760;2024-03-06T05:55:26;22.03;38.21
79010;DHT22;73031;44.726;37.760;2024-03-06T05:56:27;22.09;37.78
79010;DHT22;73031;44.726;37.760;2024-03-06T05:57:29;22.17;37.89
79010;DHT22;73031;44.726;37.760;2024-03-06T05:58:30;22.32;37.68
79010;DHT22;73031;44.726;37.760;2024-03-06T05:59:31;22.67;37.96
79010;DHT22;73031;44.726;37.760;2024-03-06T06:00:33;22.91;36.43
79010;DHT22;73031;44.726;37.760;2024-03-06T06:01:34;23.26;37.18
79010;DHT22;73031;44.726;37.760;2024-03-06T06:02:36;23.68;35.90
79010;DHT22;73031;44.726;37.760;2024-03-06T06:03:37;24.18;34.84
79010;DHT22;73031;44.726;37.760;2024-03-06T06:04:39;24.46;34.63
79010;DHT22;73031;44.726;37.760;2024-03-06T06:05:40;24.67;35.11
79010;DHT22;73031;44.726;37.760;2024-03-06T06:06:42;24.87;34.42
79010;DHT22;73031;44.726;37.760;2024-03-06T06:07:43;25.11;34.54
79010;DHT22;73031;44.726;37.760;2024-03-06T06:08:45;25.59;34.20
79010;DHT22;73031;44.726;37.760;2024-03-06T06:09:46;26.01;33.13
79010;DHT22;73031;44.726;37.760;2024-03-06T06:10:48;26.39;32.58
79010;DHT22;73031;44.726;37.760;2024-03-06T06:11:49;26.74;31.91
79010;DHT22;73031;44.726;37.760;2024-03-06T06:12:51;27.11;32.09
79010;DHT22;73031;44.726;37.760;2024-03-06T06:13:53;27.02;30.95
79010;DHT22;73031;44.726;37.760;2024-03-06T06:14:55;26.60;30.72
79010;DHT22;73031;44.726;37.760;2024-03-06T06:15:59;26.15;30.18
79010;DHT22;73031;44.726;37.760;2024-03-06T06:17:03;25.88;31.79
79010;DHT22;73031;44.726;37.760;2024-03-06T06:18:05;25.67;31.94
79010;DHT22;73031;44.726;37.760;2024-03-06T06:19:07;25.73;31.29
79010;DHT22;73031;44.726;37.760;2024-03-06T06:20:09;25.51;31.04
79010;DHT22;73031;44.726;37.760;2024-03-06T06:21:10;25.42;31.70
79010;DHT22;73031;44.726;37.760;2024-03-06T06:22:11;25.57;31.24
79010;DHT22;73031;44.726;37.760;2024-03-06T06:23:13;25.36;31.08
79010;DHT22;73031;44.726;37.760;2024-03-06T06:24:14;25.37;31.11
79010;DHT22;73031;44.726;37.760;2024-03-06T06:25:16;25.47;31.97
79010;DHT22;73031;44.726;37.760;2024-03-06T06:26:17;25.84;31.27
79010;DHT22;73031;44.726;37.760;2024-03-06T06:27:19;26.14;31.02
79010;DHT22;73031;44.726;37.760;2024-03-06T06:28:20;25.95;31.32
79010;DHT22;73031;44.726;37.760;2024-03-06T06:29:22;26.21;30.62
79010;DHT22;73031;44.726;37.760;2024-03-06T06:30:23;26.37;31.15
79010;DHT22;73031;44.726;37.760;2024-03-06T06:31:24;27.50;29.28
79010;DHT22;73031;44.726;37.760;2024-03-06T06:32:27;27.32;28.98
79010;DHT22;73031;44.726;37.760;2024-03-06T06:33:28;28.32;27.60
79010;DHT22;73031;44.726;37.760;2024-03-06T06:34:30;28.80;27.36
79010;DHT22;73031;44.726;37.760;2024-03-06T06:35:32;29.22;26.38
79010;DHT22;73031;44.726;37.760;2024-03-06T06:36:34;28.93;26.55
79010;DHT22;73031;44.726;37.760;2024-03-06T06:37:37;29.81;25.91
79010;DHT22;73031;44.726;37.760;2024-03-06T06:38:39;30.45;25.08
79010;DHT22;73031;44.726;37.760;2024-03-06T06:39:41;30.93;24.48
79010;DHT22;73031;44.726;37.760;2024-03-06T06:40:42;31.29;23.82
79010;DHT22;73031;44.726;37.760;2024-03-06T06:41:43;31.66;23.32
79010;DHT22;73031;44.726;37.760;2024-03-06T06:42:45;31.76;23.39
79010;DHT22;73031;44.726;37.760;2024-03-06T06:43:57;31.84;23.11
79010;DHT22;73031;44.726;37.760;2024-03-06T06:44:59;32.20;22.83
79010;DHT22;73031;44.726;37.760;2024-03-06T06:46:01;32.14;22.97
79010;DHT22;73031;44.726;37.760;2024-03-06T06:47:05;31.31;23.30
79010;DHT22;73031;44.726;37.760;2024-03-06T06:48:08;30.65;24.14
79010;DHT22;73031;44.726;37.760;2024-03-06T06:49:10;30.40;24.24
79010;DHT22;73031;44.726;37.760;2024-03-06T06:50:11;30.36;23.77
79010;DHT22;73031;44.726;37.760;2024-03-06T06:51:13;29.94;24.53
79010;DHT22;73031;44.726;37.760;2024-03-06T06:52:14;29.49;24.86
79010;DHT22;73031;44.726;37.760;2024-03-06T06:53:15;29.07;25.14
79010;DHT22;73031;44.726;37.760;2024-03-06T06:54:17;28.73;25.48
79010;DHT22;73031;44.726;37.760;2024-03-06T06:55:18;28.41;25.68
79010;DHT22;73031;44.726;37.760;2024-03-06T06:56:23;28.16;25.84
79010;DHT22;73031;44.726;37.760;2024-03-06T06:57:26;28.46;25.74
79010;DHT22;73031;44.726;37.760;2024-03-06T06:58:27;28.80;25.62
79010;DHT22;73031;44.726;37.760;2024-03-06T06:59:28;28.81;25.82
79010;DHT22;73031;44.726;37.760;2024-03-06T07:00:30;28.74;25.80
79010;DHT22;73031;44.726;37.760;2024-03-06T07:01:32;28.35;26.30
79010;DHT22;73031;44.726;37.760;2024-03-06T07:02:34;28.42;27.12
79010;DHT22;73031;44.726;37.760;2024-03-06T07:03:35;28.50;26.47
79010;DHT22;73031;44.726;37.760;2024-03-06T07:04:36;28.80;25.77
79010;DHT22;73031;44.726;37.760;2024-03-06T07:05:38;29.18;25.88
79010;DHT22;73031;44.726;37.760;2024-03-06T07:06:39;29.31;25.46
79010;DHT22;73031;44.726;37.760;2024-03-06T07:07:41;29.56;25.42
79010;DHT22;73031;44.726;37.760;2024-03-06T07:08:42;29.58;24.51
79010;DHT22;73031;44.726;37.760;2024-03-06T07:09:44;29.45;24.69
79010;DHT22;73031;44.726;37.760;2024-03-06T07:10:46;29.97;23.93
79010;DHT22;73031;44.726;37.760;2024-03-06T07:11:47;29.14;25.25
79010;DHT22;73031;44.726;37.760;2024-03-06T07:12:49;28.94;25.32
79010;DHT22;73031;44.726;37.760;2024-03-06T07:13:50;29.48;24.65
79010;DHT22;73031;44.726;37.760;2024-03-06T07:14:52;29.38;24.81
79010;DHT22;73031;44.726;37.760;2024-03-06T07:15:53;29.19;25.11
79010;DHT22;73031;44.726;37.760;2024-03-06T07:16:54;29.78;25.35
79010;DHT22;73031;44.726;37.760;2024-03-06T07:17:56;29.46;25.87
79010;DHT22;73031;44.726;37.760;2024-03-06T07:18:57;29.38;26.32
79010;DHT22;73031;44.726;37.760;2024-03-06T07:20:00;29.24;26.42
79010;DHT22;73031;44.726;37.760;2024-03-06T07:21:02;29.12;25.59
79010;DHT22;73031;44.726;37.760;2024-03-06T07:22:03;29.08;24.96
79010;DHT22;73031;44.726;37.760;2024-03-06T07:23:05;29.08;24.99
79010;DHT22;73031;44.726;37.760;2024-03-06T07:24:06;29.08;25.12
79010;DHT22;73031;44.726;37.760;2024-03-06T07:25:08;29.12;25.03
79010;DHT22;73031;44.726;37.760;2024-03-06T07:26:10;29.21;24.96
79010;DHT22;73031;44.726;37.760;2024-03-06T07:27:12;29.35;24.72
79010;DHT22;73031;44.726;37.760;2024-03-06T07:28:13;29.49;24.69
79010;DHT22;73031;44.726;37.760;2024-03-06T07:29:14;29.91;24.76
79010;DHT22;73031;44.726;37.760;2024-03-06T07:30:16;29.80;24.63
79010;DHT22;73031;44.726;37.760;2024-03-06T07:31:17;29.86;24.56
79010;DHT22;73031;44.726;37.760;2024-03-06T07:32:19;30.18;24.42
79010;DHT22;73031;44.726;37.760;2024-03-06T07:33:21;31.12;24.31
79010;DHT22;73031;44.726;37.760;2024-03-06T07:34:22;31.90;22.68
79010;DHT22;73031;44.726;37.760;2024-03-06T07:35:23;31.62;22.94
79010;DHT22;73031;44.726;37.760;2024-03-06T07:36:25;30.98;23.51
79010;DHT22;73031;44.726;37.760;2024-03-06T07:37:26;30.60;24.12
79010;DHT22;73031;44.726;37.760;2024-03-06T07:38:28;30.31;24.51
79010;DHT22;73031;44.726;37.760;2024-03-06T07:39:29;29.93;24.90
79010;DHT22;73031;44.726;37.760;2024-03-06T07:40:32;29.67;25.14
79010;DHT22;73031;44.726;37.760;2024-03-06T07:41:33;29.39;24.51
79010;DHT22;73031;44.726;37.760;2024-03-06T07:42:35;29.11;25.21
79010;DHT22;73031;44.726;37.760;2024-03-06T07:43:37;29.01;25.71
79010;DHT22;73031;44.726;37.760;2024-03-06T07:44:39;28.94;25.10
79010;DHT22;73031;44.726;37.760;2024-03-06T07:45:41;28.76;26.17
79010;DHT22;73031;44.726;37.760;2024-03-06T07:46:42;28.56;25.88
79010;DHT22;73031;44.726;37.760;2024-03-06T07:47:44;28.48;25.77
79010;DHT22;73031;44.726;37.760;2024-03-06T07:48:46;28.26;25.06
79010;DHT22;73031;44.726;37.760;2024-03-06T07:49:47;27.91;25.21
79010;DHT22;73031;44.726;37.760;2024-03-06T07:50:48;27.67;25.89
79010;DHT22;73031;44.726;37.760;2024-03-06T07:51:54;27.45;25.92
79010;DHT22;73031;44.726;37.760;2024-03-06T07:52:55;27.32;25.85
79010;DHT22;73031;44.726;37.760;2024-03-06T07:53:56;27.08;26.10
79010;DHT22;73031;44.726;37.760;2024-03-06T07:54:58;26.86;26.55
79010;DHT22;73031;44.726;37.760;2024-03-06T07:55:59;26.71;26.92
79010;DHT22;73031;44.726;37.760;2024-03-06T07:57:03;26.59;27.29
79010;DHT22;73031;44.726;37.760;2024-03-06T07:58:05;26.64;27.21
79010;DHT22;73031;44.726;37.760;2024-03-06T07:59:06;26.54;27.50
79010;DHT22;73031;44.726;37.760;2024-03-06T08:00:08;26.45;28.03
79010;DHT22;73031;44.726;37.760;2024-03-06T08:01:15;26.45;27.51
79010;DHT22;73031;44.726;37.760;2024-03-06T08:02:17;26.39;27.41
79010;DHT22;73031;44.726;37.760;2024-03-06T08:03:18;26.47;27.78
79010;DHT22;73031;44.726;37.760;2024-03-06T08:04:22;26.60;27.75